Terminal Aerodrome Forecast
Issued by NWS Charleston, WV

Current Version | Previous Version | Text Only | Print | Product List | Glossary Off
Versions: 1 2 3 4 5 6 7 8 9 10 11 12 13 14 15 16 17 18 19 20 21 22 23 24 25 26 27 28 29

000
FTUS41 KRLX 270505 AAB
TAFCRW
TAF AMD
KCRW 270505Z 2705/2724 00000KT P6SM BKN050
     FM270600 00000KT P6SM SKC
     FM270800 05004KT 4SM BR SCT001
     FM270900 00000KT 1/4SM FG VV001
     FM271300 00000KT 4SM BR SCT001
     FM271400 00000KT P6SM FEW040=

USA.gov is the U.S. government's official web portal to all federal, state and local government web resources and services.